Time;durP1;ratioP1;P1;durP2;ratioP2;P2;SDS_P1;SDS_P2;PMS_P1;PMS_P2;Temp;Humidity;BMP_temperature;BMP_pressure;BME280_temperature;BME280_humidity;BME280_pressure;Samples;Min_cycle;Max_cycle;Signal;HPM_P1;HPM_P2
2023/02/25 00:00:43;;;;;;;21.03;3.27;;;3.90;99.90;;;;;;4890426;29;20242;-82
2023/02/25 00:03:10;;;;;;;26.83;3.80;;;3.90;99.90;;;;;;4888054;29;20287;-82
2023/02/25 00:05:40;;;;;;;20.57;3.07;;;3.90;99.90;;;;;;4881062;29;20184;-82
2023/02/25 00:08:07;;;;;;;18.00;3.33;;;3.90;99.90;;;;;;4895665;29;20198;-82
2023/02/25 00:10:33;;;;;;;14.63;2.63;;;3.90;99.90;;;;;;4899442;29;20190;-83
2023/02/25 00:12:59;;;;;;;10.33;2.40;;;3.90;99.90;;;;;;4885568;29;20195;-82
2023/02/25 00:15:24;;;;;;;11.80;2.80;;;3.90;99.90;;;;;;4880872;29;20184;-82
2023/02/25 00:17:51;;;;;;;10.97;2.47;;;3.90;99.90;;;;;;4887085;29;20308;-83
2023/02/25 00:20:21;;;;;;;13.50;2.63;;;3.90;99.90;;;;;;4895951;29;20249;-86
2023/02/25 00:22:48;;;;;;;10.53;2.20;;;3.80;99.90;;;;;;4889722;29;20624;-85
2023/02/25 00:25:17;;;;;;;14.87;2.27;;;3.80;99.90;;;;;;4882115;29;20251;-84
2023/02/25 00:27:43;;;;;;;8.67;1.60;;;3.80;99.90;;;;;;4890810;29;20183;-83
2023/02/25 00:30:10;;;;;;;12.83;2.30;;;3.90;99.90;;;;;;4899582;29;20278;-83
2023/02/25 00:32:37;;;;;;;12.27;2.23;;;3.90;99.90;;;;;;4887504;29;20188;-83
2023/02/25 00:35:03;;;;;;;10.37;1.80;;;3.80;99.90;;;;;;4880462;29;20298;-82
2023/02/25 00:37:28;;;;;;;12.57;2.10;;;3.80;99.90;;;;;;4880200;29;20192;-83
2023/02/25 00:39:54;;;;;;;12.53;1.90;;;3.80;99.90;;;;;;4881437;29;20283;-80
2023/02/25 00:42:20;;;;;;;7.93;1.70;;;3.70;99.90;;;;;;4882640;29;20180;-83
2023/02/25 00:44:47;;;;;;;6.93;1.83;;;3.60;99.90;;;;;;4879497;29;20180;-82
2023/02/25 00:47:14;;;;;;;12.40;1.90;;;3.60;99.90;;;;;;4899078;29;20183;-83
2023/02/25 00:49:40;;;;;;;9.93;2.47;;;3.70;99.90;;;;;;4897829;29;20187;-82
2023/02/25 00:52:07;;;;;;;7.30;1.63;;;3.70;99.90;;;;;;4880015;29;20203;-82
2023/02/25 00:54:34;;;;;;;13.00;1.67;;;3.70;99.90;;;;;;4890363;29;20195;-82
2023/02/25 00:56:59;;;;;;;7.63;1.93;;;3.70;99.90;;;;;;4895940;29;20203;-82
2023/02/25 00:59:25;;;;;;;11.00;1.87;;;3.70;99.90;;;;;;4899782;29;20277;-81
2023/02/25 01:01:51;;;;;;;8.97;1.50;;;3.70;99.90;;;;;;4887180;29;20598;-82
2023/02/25 01:04:16;;;;;;;8.13;1.80;;;3.70;99.90;;;;;;4897961;29;20506;-82
2023/02/25 01:06:42;;;;;;;5.80;1.63;;;3.60;99.90;;;;;;4898207;29;20534;-83
2023/02/25 01:09:12;;;;;;;6.50;1.67;;;3.60;99.90;;;;;;4887153;29;20195;-83
2023/02/25 01:11:42;;;;;;;13.13;2.03;;;3.60;99.90;;;;;;4895278;29;20631;-83
2023/02/25 01:14:12;;;;;;;8.33;1.87;;;3.60;99.90;;;;;;4893929;29;20535;-82
2023/02/25 01:16:38;;;;;;;10.80;2.37;;;3.70;99.90;;;;;;4899815;29;20171;-84
2023/02/25 01:19:12;;;;;;;16.70;2.60;;;3.60;99.90;;;;;;4894123;29;20330;-83
2023/02/25 01:21:42;;;;;;;14.17;2.10;;;3.60;99.90;;;;;;4891192;29;20199;-83
2023/02/25 01:24:16;;;;;;;8.30;1.90;;;3.60;99.90;;;;;;4879963;29;20504;-83
2023/02/25 01:26:44;;;;;;;11.73;2.33;;;3.60;99.90;;;;;;4880902;29;20180;-82
2023/02/25 01:29:12;;;;;;;8.93;2.37;;;3.60;99.90;;;;;;4879160;29;20703;-83
2023/02/25 01:31:39;;;;;;;8.53;2.10;;;3.60;99.90;;;;;;4891276;29;20226;-82
2023/02/25 01:34:07;;;;;;;7.27;1.43;;;3.60;99.90;;;;;;4898089;29;20210;-83
2023/02/25 01:36:34;;;;;;;7.23;2.03;;;3.50;99.90;;;;;;4883100;29;20198;-82
2023/02/25 01:39:01;;;;;;;8.00;1.50;;;3.50;99.90;;;;;;4897799;29;20309;-82
2023/02/25 01:41:29;;;;;;;8.13;1.90;;;3.40;99.90;;;;;;4892563;29;20206;-82
2023/02/25 01:44:13;;;;;;;5.60;1.30;;;3.40;99.90;;;;;;4880669;29;20687;-82
2023/02/25 01:46:41;;;;;;;7.03;1.40;;;3.40;99.90;;;;;;4884531;29;20235;-82
2023/02/25 01:49:33;;;;;;;2.33;1.17;;;3.30;99.90;;;;;;4892672;29;20259;-82
2023/02/25 01:52:10;;;;;;;7.57;1.40;;;3.30;99.90;;;;;;4890671;29;20228;-82
2023/02/25 01:54:37;;;;;;;3.27;1.47;;;3.20;99.90;;;;;;4888465;29;20187;-81
2023/02/25 01:57:07;;;;;;;4.50;1.60;;;3.20;99.90;;;;;;4897457;29;20646;-82
2023/02/25 01:59:34;;;;;;;7.57;2.20;;;3.20;99.90;;;;;;4888020;29;20671;-81
2023/02/25 02:02:00;;;;;;;3.47;1.63;;;3.20;99.90;;;;;;4891907;29;20266;-83
2023/02/25 02:04:27;;;;;;;4.97;1.57;;;3.20;99.90;;;;;;4897011;29;20286;-81
2023/02/25 02:06:54;;;;;;;7.97;1.67;;;3.20;99.90;;;;;;4897449;29;20266;-82
2023/02/25 02:09:27;;;;;;;7.73;2.10;;;3.20;99.90;;;;;;4891418;29;20194;-81
2023/02/25 02:11:56;;;;;;;4.40;1.30;;;3.20;99.90;;;;;;4887781;29;20192;-81
2023/02/25 02:14:36;;;;;;;5.53;1.60;;;3.20;99.90;;;;;;4878509;29;20198;-81
2023/02/25 02:17:31;;;;;;;4.80;1.27;;;3.20;99.90;;;;;;4888226;29;20190;-81
2023/02/25 02:20:23;;;;;;;7.63;1.60;;;3.10;99.90;;;;;;4892441;29;20244;-81
2023/02/25 02:22:57;;;;;;;6.63;1.17;;;3.10;99.90;;;;;;4894835;29;20194;-81
2023/02/25 02:26:02;;;;;;;5.97;1.27;;;3.10;99.90;;;;;;4892073;29;20203;-82
2023/02/25 02:31:11;;;;;;;4.30;1.10;;;3.10;99.90;;;;;;5226535;23;20274;-82
2023/02/25 02:33:55;;;;;;;1.87;0.70;;;3.10;99.90;;;;;;4872223;29;20635;-83
2023/02/25 02:36:35;;;;;;;3.80;1.13;;;3.00;99.90;;;;;;4844492;29;20180;-82
2023/02/25 02:39:20;;;;;;;2.03;1.03;;;3.10;99.90;;;;;;4844483;29;20690;-83
2023/02/25 02:41:59;;;;;;;5.03;1.30;;;3.10;99.90;;;;;;4857069;29;20204;-83
2023/02/25 02:44:36;;;;;;;0.70;0.53;;;3.10;99.90;;;;;;4863164;29;20180;-83
2023/02/25 02:47:11;;;;;;;2.67;0.93;;;3.10;99.90;;;;;;4848363;29;20200;-82
2023/02/25 02:50:18;;;;;;;4.30;0.80;;;3.10;99.90;;;;;;4859816;29;20180;-82
2023/02/25 02:52:51;;;;;;;3.67;0.73;;;3.20;99.90;;;;;;4852521;29;20208;-82
2023/02/25 02:55:25;;;;;;;3.50;1.00;;;3.20;99.90;;;;;;4859610;29;20199;-82
2023/02/25 02:57:56;;;;;;;4.83;1.10;;;3.20;99.90;;;;;;4879211;29;20245;-82
2023/02/25 03:00:27;;;;;;;4.77;1.10;;;3.20;99.90;;;;;;4876929;29;20226;-82
2023/02/25 03:03:11;;;;;;;2.83;0.70;;;3.20;99.90;;;;;;4849202;29;20195;-82
2023/02/25 03:05:40;;;;;;;1.10;0.50;;;3.20;99.90;;;;;;4856219;29;20196;-82
2023/02/25 03:08:13;;;;;;;2.33;0.80;;;3.20;99.90;;;;;;4863883;29;20239;-82
2023/02/25 03:10:38;;;;;;;4.20;0.90;;;3.20;99.90;;;;;;4858840;29;20192;-82
2023/02/25 03:13:04;;;;;;;3.80;0.90;;;3.20;99.90;;;;;;4865974;29;20550;-82
2023/02/25 03:15:32;;;;;;;4.23;0.93;;;3.20;99.90;;;;;;4861043;29;20195;-81
2023/02/25 03:18:04;;;;;;;5.00;0.80;;;3.20;99.90;;;;;;4855568;29;20192;-82
2023/02/25 03:20:50;;;;;;;3.90;0.73;;;3.20;99.90;;;;;;4855379;29;20278;-82
2023/02/25 03:23:20;;;;;;;5.07;1.03;;;3.20;99.90;;;;;;4866139;29;20176;-82
2023/02/25 03:25:58;;;;;;;4.27;1.03;;;3.20;99.90;;;;;;4881327;29;20193;-81
2023/02/25 03:28:30;;;;;;;5.57;0.97;;;3.20;99.90;;;;;;4863822;29;20246;-82
2023/02/25 03:31:05;;;;;;;9.10;1.53;;;3.30;99.90;;;;;;4872076;29;20299;-80
2023/02/25 03:33:38;;;;;;;5.20;0.90;;;3.30;99.90;;;;;;4865187;29;20632;-81
2023/02/25 03:36:12;;;;;;;2.47;0.87;;;3.20;99.90;;;;;;4865957;29;20279;-83
2023/02/25 03:38:43;;;;;;;4.50;1.20;;;3.20;99.90;;;;;;4864182;29;20275;-83
2023/02/25 03:41:12;;;;;;;4.53;1.10;;;3.20;99.90;;;;;;4847663;29;20184;-82
2023/02/25 03:43:45;;;;;;;4.20;0.80;;;3.20;99.90;;;;;;4865320;29;20199;-82
2023/02/25 03:46:13;;;;;;;4.57;0.90;;;3.20;99.90;;;;;;4865805;29;20216;-82
2023/02/25 03:48:40;;;;;;;3.97;0.80;;;3.20;99.90;;;;;;4863122;29;20191;-82
2023/02/25 03:51:06;;;;;;;8.13;1.00;;;3.20;99.90;;;;;;4863638;29;20189;-82
2023/02/25 03:53:33;;;;;;;2.77;0.93;;;3.20;99.90;;;;;;4846915;29;20191;-81
2023/02/25 03:56:04;;;;;;;7.40;1.57;;;3.20;99.90;;;;;;4865783;29;20264;-82
2023/02/25 03:58:37;;;;;;;4.30;1.70;;;3.20;99.90;;;;;;4864447;29;20270;-82
2023/02/25 04:01:11;;;;;;;3.63;1.13;;;3.20;99.90;;;;;;4865290;29;20222;-81
2023/02/25 04:03:36;;;;;;;7.63;1.23;;;3.20;99.90;;;;;;4861065;29;20200;-82
2023/02/25 04:06:02;;;;;;;4.40;1.20;;;3.10;99.90;;;;;;4863193;29;20192;-81
2023/02/25 04:08:28;;;;;;;4.67;1.13;;;3.10;99.90;;;;;;4862464;29;20183;-82
2023/02/25 04:10:54;;;;;;;8.43;2.33;;;3.00;99.90;;;;;;4851836;29;20505;-82
2023/02/25 04:13:22;;;;;;;5.20;2.00;;;3.00;99.90;;;;;;4858669;29;20548;-81
2023/02/25 04:15:48;;;;;;;9.33;2.23;;;3.00;99.90;;;;;;4856520;29;20216;-81
2023/02/25 04:18:14;;;;;;;2.83;1.20;;;3.10;99.90;;;;;;4863407;29;20503;-81
2023/02/25 04:20:41;;;;;;;6.47;1.53;;;3.10;99.90;;;;;;4845206;29;20203;-80
2023/02/25 04:23:07;;;;;;;4.67;1.07;;;3.10;99.90;;;;;;4864545;29;20649;-81
2023/02/25 04:25:33;;;;;;;2.53;1.10;;;3.00;99.90;;;;;;4852496;29;20295;-81
2023/02/25 04:27:59;;;;;;;2.53;1.00;;;3.10;99.90;;;;;;4850251;29;20192;-82
2023/02/25 04:30:25;;;;;;;2.60;0.70;;;3.00;99.90;;;;;;4853756;29;20682;-81
2023/02/25 04:32:51;;;;;;;4.70;1.17;;;3.10;99.90;;;;;;4864180;29;20202;-83
2023/02/25 04:35:16;;;;;;;1.27;0.67;;;3.00;99.90;;;;;;4862747;29;20195;-81
2023/02/25 04:37:42;;;;;;;3.70;1.13;;;3.00;99.90;;;;;;4881562;29;20188;-82
2023/02/25 04:40:17;;;;;;;2.80;0.73;;;3.00;99.90;;;;;;4862772;29;20246;-83
2023/02/25 04:42:43;;;;;;;0.97;0.83;;;3.00;99.90;;;;;;4846291;29;20188;-82
2023/02/25 04:45:10;;;;;;;2.93;1.10;;;3.00;99.90;;;;;;4862215;29;20218;-83
2023/02/25 04:47:36;;;;;;;1.47;0.80;;;3.00;99.90;;;;;;4851423;29;20200;-82
2023/02/25 04:50:03;;;;;;;3.60;1.40;;;3.00;99.90;;;;;;4862558;29;20177;-81
2023/02/25 04:52:29;;;;;;;3.00;0.93;;;2.90;99.90;;;;;;4849453;29;20197;-81
2023/02/25 04:54:55;;;;;;;4.70;1.20;;;2.90;99.90;;;;;;4870159;29;20196;-81
2023/02/25 04:57:20;;;;;;;2.80;1.00;;;3.00;99.90;;;;;;4862490;29;20199;-82
2023/02/25 04:59:46;;;;;;;1.40;0.73;;;3.00;99.90;;;;;;4864102;29;20230;-81
2023/02/25 05:02:12;;;;;;;3.00;1.00;;;2.90;99.90;;;;;;4864245;29;20697;-80
2023/02/25 05:04:38;;;;;;;4.47;1.03;;;2.90;99.90;;;;;;4870691;29;20870;-81
2023/02/25 05:07:06;;;;;;;2.20;0.60;;;2.90;99.90;;;;;;4846861;29;20237;-82
2023/02/25 05:09:32;;;;;;;4.10;1.23;;;2.80;99.90;;;;;;4860397;29;20192;-82
2023/02/25 05:11:58;;;;;;;3.33;1.27;;;2.80;99.90;;;;;;4860998;29;20243;-81
2023/02/25 05:14:23;;;;;;;3.80;1.30;;;2.80;99.90;;;;;;4866304;29;20196;-80
2023/02/25 05:16:49;;;;;;;1.77;0.77;;;2.80;99.90;;;;;;4862350;29;20176;-82
2023/02/25 05:19:21;;;;;;;1.87;0.70;;;2.90;99.90;;;;;;4862588;29;20224;-81
2023/02/25 05:21:47;;;;;;;4.50;1.17;;;2.80;99.90;;;;;;4862457;29;20188;-81
2023/02/25 05:24:13;;;;;;;3.90;1.10;;;2.80;99.90;;;;;;4846829;29;20196;-82
2023/02/25 05:26:38;;;;;;;3.40;1.10;;;2.80;99.90;;;;;;4878745;29;20187;-80
2023/02/25 05:29:05;;;;;;;4.37;0.93;;;2.80;99.90;;;;;;4879106;29;20646;-80
2023/02/25 05:31:30;;;;;;;5.43;1.13;;;2.70;99.90;;;;;;4860142;29;20227;-80
2023/02/25 05:33:56;;;;;;;1.33;0.70;;;2.70;99.90;;;;;;4861563;29;20192;-81
2023/02/25 05:36:22;;;;;;;7.17;1.47;;;2.70;99.90;;;;;;4851481;29;20196;-82
2023/02/25 05:38:48;;;;;;;1.67;0.80;;;2.70;99.90;;;;;;4863258;29;20211;-81
2023/02/25 05:41:14;;;;;;;7.30;1.20;;;2.70;99.90;;;;;;4859408;29;20207;-81
2023/02/25 05:43:41;;;;;;;4.97;1.50;;;2.70;99.90;;;;;;4848711;29;20577;-81
2023/02/25 05:46:10;;;;;;;3.23;1.10;;;2.70;99.90;;;;;;4879300;29;20196;-82
2023/02/25 05:48:36;;;;;;;2.70;1.00;;;2.70;99.90;;;;;;4879433;29;20192;-82
2023/02/25 05:51:09;;;;;;;2.83;1.00;;;2.70;99.90;;;;;;4880148;29;20675;-80
2023/02/25 05:53:36;;;;;;;3.67;1.17;;;2.60;99.90;;;;;;4859689;29;20201;-81
2023/02/25 05:56:07;;;;;;;2.20;1.10;;;2.60;99.90;;;;;;4861990;29;20249;-80
2023/02/25 05:58:33;;;;;;;2.67;1.20;;;2.60;99.90;;;;;;4864541;29;20216;-80
2023/02/25 06:00:59;;;;;;;4.13;1.50;;;2.60;99.90;;;;;;4861465;29;20673;-81
2023/02/25 06:03:25;;;;;;;4.77;2.20;;;2.60;99.90;;;;;;4864385;29;20198;-80
2023/02/25 06:05:52;;;;;;;5.73;1.20;;;2.60;99.90;;;;;;4861523;29;20184;-80
2023/02/25 06:08:17;;;;;;;5.67;1.90;;;2.50;99.90;;;;;;4879025;29;20222;-80
2023/02/25 06:10:43;;;;;;;4.97;1.63;;;2.50;99.90;;;;;;4879406;29;20677;-79
2023/02/25 06:13:10;;;;;;;3.13;1.10;;;2.50;99.90;;;;;;4857418;29;20529;-80
2023/02/25 06:15:40;;;;;;;3.17;1.30;;;2.50;99.90;;;;;;4846423;29;20234;-80
2023/02/25 06:18:07;;;;;;;2.33;1.50;;;2.50;99.90;;;;;;4878624;29;20726;-82
2023/02/25 06:20:34;;;;;;;2.20;1.10;;;2.40;99.90;;;;;;4858316;29;20532;-81
2023/02/25 06:23:00;;;;;;;4.63;1.23;;;2.50;99.90;;;;;;4872672;29;20234;-80
2023/02/25 06:25:29;;;;;;;1.10;0.80;;;2.50;99.90;;;;;;4879146;29;20247;-81
2023/02/25 06:27:56;;;;;;;2.03;1.10;;;2.50;99.90;;;;;;4874184;29;20191;-81
2023/02/25 06:30:22;;;;;;;1.47;1.00;;;2.40;99.90;;;;;;4878659;29;20228;-81
2023/02/25 06:32:48;;;;;;;1.93;1.00;;;2.40;99.90;;;;;;4862420;29;20184;-81
2023/02/25 06:35:13;;;;;;;4.63;1.23;;;2.40;99.90;;;;;;4875818;29;20690;-81
2023/02/25 06:37:39;;;;;;;2.30;1.10;;;2.40;99.90;;;;;;4850803;29;20188;-81
2023/02/25 06:40:06;;;;;;;1.60;0.90;;;2.40;99.90;;;;;;4876062;29;20678;-81
2023/02/25 06:42:32;;;;;;;3.80;1.20;;;2.40;99.90;;;;;;4878681;29;20343;-82
2023/02/25 06:44:58;;;;;;;2.50;1.00;;;2.40;99.90;;;;;;4863691;29;20628;-81
2023/02/25 06:47:23;;;;;;;4.00;1.10;;;2.40;99.90;;;;;;4880066;29;20196;-80
2023/02/25 06:49:49;;;;;;;2.60;1.10;;;2.30;99.90;;;;;;4865428;29;20304;-81
2023/02/25 06:52:15;;;;;;;1.37;0.93;;;2.30;99.90;;;;;;4882147;29;20184;-80
2023/02/25 06:54:40;;;;;;;2.17;1.00;;;2.40;99.90;;;;;;4878283;29;20517;-82
2023/02/25 06:57:06;;;;;;;1.37;0.87;;;2.40;99.90;;;;;;4864919;29;20669;-80
2023/02/25 06:59:34;;;;;;;3.40;1.00;;;2.40;99.90;;;;;;4864483;29;20238;-80
2023/02/25 07:02:00;;;;;;;4.50;1.30;;;2.40;99.90;;;;;;4865231;29;20530;-80
2023/02/25 07:04:26;;;;;;;2.83;1.03;;;2.40;99.90;;;;;;4861404;29;20198;-80
2023/02/25 07:06:51;;;;;;;1.43;0.80;;;2.40;99.90;;;;;;4864147;29;20219;-80
2023/02/25 07:09:17;;;;;;;1.93;0.90;;;2.40;99.90;;;;;;4879189;29;20204;-81
2023/02/25 07:11:43;;;;;;;2.30;1.07;;;2.40;99.90;;;;;;4881833;29;20195;-81
2023/02/25 07:14:08;;;;;;;3.83;1.00;;;2.30;99.90;;;;;;4865185;29;20659;-80
2023/02/25 07:16:34;;;;;;;4.27;1.50;;;2.40;99.90;;;;;;4863117;29;20172;-81
2023/02/25 07:19:03;;;;;;;2.27;1.27;;;2.40;99.90;;;;;;4866117;29;20611;-80
2023/02/25 07:21:29;;;;;;;2.60;1.17;;;2.40;99.90;;;;;;4872677;29;20206;-80
2023/02/25 07:23:57;;;;;;;3.20;1.43;;;2.40;99.90;;;;;;4869537;29;20195;-79
2023/02/25 07:26:27;;;;;;;2.13;1.43;;;2.50;99.90;;;;;;4861590;29;20599;-81
2023/02/25 07:28:57;;;;;;;4.93;1.37;;;2.50;99.90;;;;;;4862899;29;20706;-81
2023/02/25 07:31:23;;;;;;;4.03;1.47;;;2.50;99.90;;;;;;4831428;29;1120021;-80
2023/02/25 07:33:49;;;;;;;5.50;1.33;;;2.50;99.90;;;;;;4874004;29;20191;-81
2023/02/25 07:36:15;;;;;;;1.60;1.33;;;2.40;99.90;;;;;;4864448;29;20188;-80
2023/02/25 07:38:41;;;;;;;2.67;1.30;;;2.40;99.90;;;;;;4882958;29;20200;-81
2023/02/25 07:41:09;;;;;;;4.13;1.33;;;2.40;99.90;;;;;;4875741;29;20192;-80
2023/02/25 07:43:35;;;;;;;4.93;1.23;;;2.40;99.90;;;;;;4863947;29;20343;-81
2023/02/25 07:46:00;;;;;;;5.63;1.63;;;2.50;99.90;;;;;;4864063;29;20703;-80
2023/02/25 07:48:27;;;;;;;2.27;1.30;;;2.50;99.90;;;;;;4846750;29;20189;-79
2023/02/25 07:50:52;;;;;;;4.30;1.27;;;2.50;99.90;;;;;;4870438;29;20196;-80
2023/02/25 07:53:21;;;;;;;5.20;1.20;;;2.50;99.90;;;;;;4863102;29;20525;-80
2023/02/25 07:55:48;;;;;;;2.80;1.40;;;2.40;99.90;;;;;;4875530;29;20191;-80
2023/02/25 07:58:14;;;;;;;2.77;1.70;;;2.40;99.90;;;;;;4861759;29;20195;-80
2023/02/25 08:00:40;;;;;;;3.47;1.23;;;2.40;99.90;;;;;;4879227;29;20196;-80
2023/02/25 08:03:07;;;;;;;4.87;1.30;;;2.40;99.90;;;;;;4865050;29;20536;-81
2023/02/25 08:05:37;;;;;;;2.00;1.30;;;2.50;99.90;;;;;;4864592;29;20239;-80
2023/02/25 08:08:04;;;;;;;3.53;1.53;;;2.50;99.90;;;;;;4881562;29;20213;-80
2023/02/25 08:10:30;;;;;;;7.37;1.30;;;2.40;99.90;;;;;;4879209;29;20246;-79
2023/02/25 08:12:55;;;;;;;1.87;1.17;;;2.50;99.90;;;;;;4877905;29;20200;-79
2023/02/25 08:15:21;;;;;;;4.37;1.37;;;2.50;99.90;;;;;;4862125;29;20193;-80
2023/02/25 08:17:50;;;;;;;8.47;1.63;;;2.50;99.90;;;;;;4863717;29;20193;-80
2023/02/25 08:20:16;;;;;;;5.73;1.30;;;2.50;99.90;;;;;;4869205;29;20224;-81
2023/02/25 08:22:42;;;;;;;3.73;1.40;;;2.60;99.90;;;;;;4860825;29;20193;-80
2023/02/25 08:25:08;;;;;;;1.63;1.00;;;2.60;99.90;;;;;;4859363;29;20202;-81
2023/02/25 08:27:35;;;;;;;2.03;1.10;;;2.60;99.90;;;;;;4864596;29;20188;-83
2023/02/25 08:30:01;;;;;;;3.93;1.53;;;2.60;99.90;;;;;;4847343;29;20232;-83
2023/02/25 08:32:27;;;;;;;4.00;1.20;;;2.60;99.90;;;;;;4871270;29;20204;-84
2023/02/25 08:34:55;;;;;;;3.07;1.20;;;2.70;99.90;;;;;;4859690;29;20202;-85
2023/02/25 08:37:24;;;;;;;3.20;1.17;;;2.60;99.90;;;;;;4879597;29;20283;-84
2023/02/25 08:39:52;;;;;;;1.83;0.97;;;2.70;99.90;;;;;;4858333;29;20222;-86
2023/02/25 08:42:18;;;;;;;1.07;0.77;;;2.70;99.90;;;;;;4850303;29;20185;-82
2023/02/25 08:44:44;;;;;;;2.10;0.97;;;2.70;99.90;;;;;;4863491;29;20195;-83
2023/02/25 08:47:09;;;;;;;3.40;1.07;;;2.70;99.90;;;;;;4859497;29;20279;-81
2023/02/25 08:49:35;;;;;;;3.67;1.23;;;2.70;99.90;;;;;;4871904;29;20232;-80
2023/02/25 08:52:01;;;;;;;2.30;1.10;;;2.70;99.90;;;;;;4862885;29;20268;-80
2023/02/25 08:54:26;;;;;;;2.83;0.70;;;2.80;99.90;;;;;;4857082;29;20560;-80
2023/02/25 08:56:54;;;;;;;2.60;1.00;;;2.80;99.90;;;;;;4878744;29;20196;-81
2023/02/25 08:59:20;;;;;;;2.33;1.03;;;2.90;99.90;;;;;;4873607;29;20219;-80
2023/02/25 09:01:47;;;;;;;3.00;0.80;;;2.80;99.90;;;;;;4862844;29;20189;-80
2023/02/25 09:04:16;;;;;;;2.20;0.87;;;2.80;99.90;;;;;;4847184;29;20192;-79
2023/02/25 09:06:46;;;;;;;2.00;0.90;;;2.90;99.90;;;;;;4867759;29;20231;-82
2023/02/25 09:09:12;;;;;;;1.90;0.90;;;2.90;99.90;;;;;;4862635;29;20642;-80
2023/02/25 09:11:39;;;;;;;1.97;1.00;;;2.90;99.90;;;;;;4854442;29;20192;-81
2023/02/25 09:14:05;;;;;;;1.50;0.87;;;2.90;99.90;;;;;;4862804;29;20181;-82
2023/02/25 09:16:31;;;;;;;2.03;0.87;;;3.00;99.90;;;;;;4866542;29;20243;-80
2023/02/25 09:18:56;;;;;;;2.50;0.80;;;3.00;99.90;;;;;;4880774;29;20576;-80
2023/02/25 09:21:22;;;;;;;1.23;0.70;;;3.00;99.90;;;;;;4868375;29;20211;-79
2023/02/25 09:23:50;;;;;;;2.13;0.90;;;3.10;99.90;;;;;;4870873;29;20531;-79
2023/02/25 09:26:18;;;;;;;3.10;0.80;;;3.00;99.90;;;;;;4858302;29;20197;-79
2023/02/25 09:28:46;;;;;;;0.80;0.57;;;3.00;99.90;;;;;;4855624;29;20192;-80
2023/02/25 09:31:12;;;;;;;1.00;0.80;;;3.00;99.90;;;;;;4879594;29;20239;-81
2023/02/25 09:33:38;;;;;;;3.97;1.17;;;2.90;99.90;;;;;;4863830;29;20187;-80
2023/02/25 09:36:07;;;;;;;1.50;0.70;;;2.90;99.90;;;;;;4868842;29;20195;-80
2023/02/25 09:38:34;;;;;;;1.70;0.80;;;2.80;99.90;;;;;;4852706;29;20223;-79
2023/02/25 09:40:59;;;;;;;3.67;1.00;;;2.80;99.90;;;;;;4869515;29;20188;-80
2023/02/25 09:43:35;;;;;;;1.50;0.67;;;2.70;99.90;;;;;;4869392;29;20220;-80
2023/02/25 09:46:12;;;;;;;1.60;0.90;;;2.60;99.90;;;;;;4855955;29;20184;-81
2023/02/25 09:48:59;;;;;;;2.23;1.27;;;2.50;99.90;;;;;;4865455;29;20191;-80
2023/02/25 09:51:35;;;;;;;2.87;1.13;;;2.40;99.90;;;;;;4855436;29;20168;-80
2023/02/25 09:54:33;;;;;;;2.97;1.00;;;2.00;99.90;;;;;;4860955;29;20581;-80
2023/02/25 09:57:03;;;;;;;1.40;1.00;;;1.80;99.90;;;;;;4862389;29;20662;-81
2023/02/25 09:59:29;;;;;;;2.90;1.10;;;1.70;99.90;;;;;;4848586;29;20221;-81
2023/02/25 10:02:31;;;;;;;1.40;1.07;;;1.70;99.90;;;;;;4847755;29;20186;-81
2023/02/25 10:05:23;;;;;;;2.40;1.30;;;1.80;99.90;;;;;;4860484;29;20636;-81
2023/02/25 10:08:20;;;;;;;2.83;1.17;;;1.90;99.90;;;;;;4851208;29;20227;-81
2023/02/25 10:11:04;;;;;;;2.10;1.20;;;2.10;99.90;;;;;;4840966;29;20260;-80
2023/02/25 10:13:41;;;;;;;3.90;1.20;;;2.10;99.90;;;;;;4864807;29;20229;-81
2023/02/25 10:16:33;;;;;;;5.27;1.30;;;2.20;99.90;;;;;;4879334;29;20270;-80
2023/02/25 10:19:25;;;;;;;0.90;0.77;;;2.30;99.90;;;;;;4850579;29;20224;-81
2023/02/25 10:22:06;;;;;;;2.83;1.00;;;2.40;99.90;;;;;;4860627;29;20204;-81
2023/02/25 10:24:46;;;;;;;1.70;1.10;;;2.50;99.90;;;;;;4853860;29;20527;-81
2023/02/25 10:27:51;;;;;;;2.17;1.07;;;2.50;99.90;;;;;;4880001;29;20508;-81
2023/02/25 10:30:25;;;;;;;1.50;0.60;;;2.70;99.90;;;;;;4862188;29;20622;-80
2023/02/25 10:32:52;;;;;;;2.43;0.80;;;2.80;99.90;;;;;;4879771;29;20183;-80
2023/02/25 10:35:30;;;;;;;1.73;0.80;;;2.90;99.90;;;;;;4879617;29;20243;-80
2023/02/25 10:37:57;;;;;;;3.43;0.87;;;3.00;99.90;;;;;;4874754;29;20647;-80
2023/02/25 10:40:26;;;;;;;1.13;0.70;;;3.00;99.90;;;;;;4850663;29;20219;-81
2023/02/25 10:42:57;;;;;;;2.93;1.20;;;3.00;99.90;;;;;;4866879;29;20189;-80
2023/02/25 10:45:26;;;;;;;4.00;1.30;;;3.00;99.90;;;;;;4861717;29;20206;-81
2023/02/25 10:48:22;;;;;;;3.33;0.70;;;3.00;99.90;;;;;;4879622;29;20628;-80
2023/02/25 10:51:01;;;;;;;2.23;0.73;;;3.10;99.90;;;;;;4864440;29;20196;-82
2023/02/25 10:53:27;;;;;;;0.60;0.50;;;3.20;99.90;;;;;;4858011;29;20636;-81
2023/02/25 10:55:53;;;;;;;3.33;0.70;;;3.20;99.90;;;;;;4860753;29;20181;-81
2023/02/25 10:58:39;;;;;;;1.20;0.70;;;3.30;99.90;;;;;;4848576;29;20180;-81
2023/02/25 11:01:12;;;;;;;1.07;0.90;;;3.30;99.90;;;;;;4850246;29;20222;-81
2023/02/25 11:03:58;;;;;;;0.90;0.60;;;3.20;99.90;;;;;;4862903;29;20620;-80
2023/02/25 11:06:36;;;;;;;2.13;0.60;;;3.30;99.90;;;;;;4879117;29;20188;-81
2023/02/25 11:09:05;;;;;;;2.07;0.50;;;3.30;99.90;;;;;;4854645;29;20199;-81
2023/02/25 11:11:34;;;;;;;1.20;0.40;;;3.40;99.90;;;;;;4860637;29;20225;-80
2023/02/25 11:14:16;;;;;;;0.60;0.50;;;3.60;99.90;;;;;;4861477;29;20189;-81
2023/02/25 11:16:45;;;;;;;2.57;0.80;;;3.80;99.90;;;;;;4860971;29;20312;-82
2023/02/25 11:19:21;;;;;;;1.27;0.40;;;3.90;99.90;;;;;;4859492;29;20807;-81
2023/02/25 11:21:47;;;;;;;2.33;0.60;;;3.80;99.90;;;;;;4860661;29;20216;-82
2023/02/25 11:24:17;;;;;;;1.97;0.63;;;3.60;99.90;;;;;;4861673;29;20632;-81
2023/02/25 11:26:46;;;;;;;2.00;0.67;;;3.60;99.90;;;;;;4862140;29;20653;-82
2023/02/25 11:29:18;;;;;;;1.77;0.70;;;3.50;99.90;;;;;;4880782;29;20248;-80
2023/02/25 11:31:50;;;;;;;0.80;0.60;;;3.40;99.90;;;;;;4867553;29;20328;-81
2023/02/25 11:34:23;;;;;;;2.03;0.90;;;3.30;99.90;;;;;;4868115;29;20267;-80
2023/02/25 11:36:49;;;;;;;0.77;0.60;;;3.30;99.90;;;;;;4847970;29;20535;-81
2023/02/25 11:39:23;;;;;;;3.33;0.80;;;3.30;99.90;;;;;;4876325;29;20226;-81
2023/02/25 11:42:00;;;;;;;1.53;0.70;;;3.30;99.90;;;;;;4860445;29;20251;-80
2023/02/25 11:44:27;;;;;;;1.60;0.80;;;2.90;99.90;;;;;;4873769;29;20195;-80
2023/02/25 11:47:17;;;;;;;2.67;0.97;;;2.70;99.90;;;;;;4865684;29;20198;-81
2023/02/25 11:50:00;;;;;;;4.10;1.30;;;2.40;99.90;;;;;;4864099;29;20207;-80
2023/02/25 11:53:06;;;;;;;4.60;1.00;;;2.20;99.90;;;;;;4871053;29;20278;-80
2023/02/25 11:55:52;;;;;;;5.17;1.30;;;2.10;99.90;;;;;;4858331;29;20193;-80
2023/02/25 11:58:45;;;;;;;2.90;1.77;;;2.20;99.90;;;;;;4864090;29;20204;-80
2023/02/25 12:01:44;;;;;;;4.40;1.37;;;2.20;99.90;;;;;;4848431;29;20196;-80
2023/02/25 12:04:41;;;;;;;1.10;0.60;;;2.20;99.90;;;;;;4873276;29;20180;-82
2023/02/25 12:07:13;;;;;;;2.57;0.60;;;2.00;99.90;;;;;;4862503;29;20220;-81
2023/02/25 12:10:16;;;;;;;3.47;0.53;;;1.60;99.90;;;;;;4863016;29;20248;-81
2023/02/25 12:13:13;;;;;;;0.87;0.43;;;1.40;99.90;;;;;;4857171;29;20192;-81
2023/02/25 12:15:53;;;;;;;3.13;0.50;;;1.40;99.90;;;;;;4846177;29;20181;-81
2023/02/25 12:18:43;;;;;;;1.23;0.63;;;1.30;99.90;;;;;;4861199;29;20184;-81
2023/02/25 12:21:46;;;;;;;2.90;0.77;;;1.30;99.90;;;;;;4856340;29;20222;-81
2023/02/25 12:24:21;;;;;;;0.77;0.70;;;1.30;99.90;;;;;;4880698;29;20194;-81
2023/02/25 12:27:08;;;;;;;3.13;0.90;;;1.40;99.90;;;;;;4860640;29;20196;-82
2023/02/25 12:29:59;;;;;;;1.80;1.00;;;1.40;99.90;;;;;;4845532;29;20276;-81
2023/02/25 12:32:57;;;;;;;3.13;1.07;;;1.40;99.90;;;;;;4835973;29;20241;-82
2023/02/25 12:36:02;;;;;;;3.97;0.90;;;1.20;99.90;;;;;;4863141;29;20556;-82
2023/02/25 12:38:49;;;;;;;3.80;1.30;;;1.30;99.90;;;;;;4846335;29;20239;-83
2023/02/25 12:41:15;;;;;;;5.90;1.53;;;1.40;99.90;;;;;;4843715;29;20208;-82
2023/02/25 12:44:07;;;;;;;2.37;0.80;;;1.50;99.90;;;;;;4827665;29;20514;-83
2023/02/25 12:47:09;;;;;;;2.53;1.27;;;1.40;99.90;;;;;;4827420;29;20245;-81
2023/02/25 12:49:41;;;;;;;2.23;0.90;;;1.60;99.90;;;;;;4837833;29;20295;-82
2023/02/25 12:52:23;;;;;;;2.20;0.90;;;1.70;99.90;;;;;;4844881;29;20278;-82
2023/02/25 12:55:12;;;;;;;2.00;0.90;;;1.90;99.90;;;;;;4835454;29;20197;-81
2023/02/25 12:57:57;;;;;;;1.63;0.80;;;2.30;99.90;;;;;;4802973;29;20663;-82
2023/02/25 13:00:32;;;;;;;2.10;0.90;;;2.70;99.90;;;;;;4843073;29;20305;-81
2023/02/25 13:03:05;;;;;;;3.83;1.23;;;3.00;99.90;;;;;;4828317;29;20644;-81
2023/02/25 13:05:56;;;;;;;6.37;1.87;;;3.00;99.90;;;;;;4847828;29;20240;-81
2023/02/25 13:08:39;;;;;;;2.70;0.80;;;3.00;99.90;;;;;;4844789;29;20281;-81
2023/02/25 13:11:06;;;;;;;2.00;0.77;;;2.90;99.90;;;;;;4842569;29;20590;-81
2023/02/25 13:14:05;;;;;;;1.77;0.90;;;2.80;99.90;;;;;;4842824;29;20565;-81
2023/02/25 13:16:36;;;;;;;5.80;1.20;;;2.80;99.90;;;;;;4834554;29;20204;-81
2023/02/25 13:19:20;;;;;;;3.17;1.43;;;2.70;99.90;;;;;;4848775;29;20303;-80
2023/02/25 13:22:22;;;;;;;7.33;1.10;;;2.60;99.90;;;;;;4859658;29;20267;-80